Time;durP1;ratioP1;P1;durP2;ratioP2;P2;SDS_P1;SDS_P2;PMS_P1;PMS_P2;Temp;Humidity;BMP_temperature;BMP_pressure;BME280_temperature;BME280_humidity;BME280_pressure;Samples;Min_cycle;Max_cycle;Signal;HPM_P1;HPM_P2
2022/12/24 00:00:31;;;;;;;7.72;6.50;;;22.80;76.30;;;;;;6302434;27;89355;-67
2022/12/24 00:03:33;;;;;;;6.82;6.22;;;22.80;76.20;;;;;;6305892;27;89011;-67
2022/12/24 00:06:35;;;;;;;6.93;6.32;;;22.80;76.20;;;;;;6294757;27;89083;-67
2022/12/24 00:09:39;;;;;;;6.45;5.75;;;22.80;76.20;;;;;;6302032;27;88634;-68
2022/12/24 00:12:41;;;;;;;6.18;5.57;;;22.80;76.40;;;;;;6295767;27;89113;-67
2022/12/24 00:15:43;;;;;;;6.35;4.88;;;22.70;76.00;;;;;;6300735;27;89170;-67
2022/12/24 00:18:45;;;;;;;4.90;4.40;;;22.70;75.70;;;;;;6292462;27;89964;-67
2022/12/24 00:21:47;;;;;;;5.72;5.10;;;22.70;75.70;;;;;;6300237;27;89058;-67
2022/12/24 00:24:50;;;;;;;5.80;5.20;;;22.70;75.90;;;;;;6294733;27;89035;-67
2022/12/24 00:27:53;;;;;;;5.50;5.00;;;22.70;76.00;;;;;;6304985;27;87997;-67
2022/12/24 00:30:55;;;;;;;5.53;5.03;;;22.70;76.10;;;;;;6304315;27;88914;-68
2022/12/24 00:33:57;;;;;;;5.68;5.18;;;22.70;76.10;;;;;;6302140;27;89138;-67
2022/12/24 00:36:59;;;;;;;5.65;5.15;;;22.70;76.20;;;;;;6305473;27;89907;-67
2022/12/24 00:40:03;;;;;;;5.90;5.03;;;22.70;76.10;;;;;;6299559;27;87204;-67
2022/12/24 00:43:05;;;;;;;5.50;5.00;;;22.60;76.10;;;;;;6302636;27;89163;-67
2022/12/24 00:46:07;;;;;;;6.03;5.32;;;22.70;76.20;;;;;;6302104;27;87197;-68
2022/12/24 00:49:11;;;;;;;5.80;5.30;;;22.60;76.20;;;;;;6297642;27;90346;-66
2022/12/24 00:52:13;;;;;;;5.80;5.22;;;22.60;76.30;;;;;;6303191;27;89253;-67
2022/12/24 00:55:16;;;;;;;5.43;4.93;;;22.60;76.30;;;;;;6303500;27;89070;-67
2022/12/24 00:58:19;;;;;;;5.45;4.95;;;22.60;76.30;;;;;;6303509;27;89130;-67
2022/12/24 01:01:23;;;;;;;5.32;4.82;;;22.60;76.40;;;;;;6301134;27;87052;-66
2022/12/24 01:07:53;;;;;;;5.70;5.07;;;22.60;76.40;;;;;;6265208;27;87746;-66
2022/12/24 01:10:57;;;;;;;5.55;5.05;;;22.60;76.40;;;;;;6301740;27;87319;-67
2022/12/24 01:13:59;;;;;;;5.30;4.80;;;22.60;76.30;;;;;;6295420;27;89127;-67
2022/12/24 01:17:01;;;;;;;5.75;5.10;;;22.60;76.40;;;;;;6305977;27;88070;-67
2022/12/24 01:20:06;;;;;;;4.95;4.45;;;22.60;76.40;;;;;;6305446;27;90110;-68
2022/12/24 01:23:08;;;;;;;5.40;4.90;;;22.60;76.40;;;;;;6304728;27;88440;-67
2022/12/24 01:26:12;;;;;;;5.45;4.95;;;22.50;76.40;;;;;;6307415;27;91138;-67
2022/12/24 01:29:15;;;;;;;5.65;5.05;;;22.50;76.40;;;;;;6299185;27;89371;-67
2022/12/24 01:32:17;;;;;;;5.07;4.57;;;22.50;76.40;;;;;;6295848;27;89086;-67
2022/12/24 01:35:19;;;;;;;5.10;4.60;;;22.50;76.40;;;;;;6308954;27;88016;-68
2022/12/24 01:38:21;;;;;;;5.15;4.65;;;22.50;76.40;;;;;;6305201;27;88586;-67
2022/12/24 01:44:48;;;;;;;4.68;4.28;;;22.50;76.30;;;;;;6290543;27;88586;-67
2022/12/24 01:47:51;;;;;;;5.20;4.70;;;22.50;76.40;;;;;;6296740;27;89104;-67
2022/12/24 01:50:57;;;;;;;4.53;4.10;;;22.50;76.30;;;;;;6301384;27;89879;-67
2022/12/24 01:54:05;;;;;;;4.97;4.50;;;22.50;76.20;;;;;;6301474;27;89534;-67
2022/12/24 01:57:14;;;;;;;4.82;4.32;;;22.50;76.30;;;;;;6300923;27;89020;-67
2022/12/24 02:00:16;;;;;;;4.75;4.35;;;22.50;76.30;;;;;;6305932;27;91031;-67
2022/12/24 02:03:19;;;;;;;4.85;4.43;;;22.50;76.40;;;;;;6307145;27;87990;-67
2022/12/24 02:06:22;;;;;;;5.30;4.80;;;22.50;76.30;;;;;;6298306;27;89110;-67
2022/12/24 02:09:25;;;;;;;5.10;4.40;;;22.50;76.40;;;;;;6293338;27;88985;-67
2022/12/24 02:12:31;;;;;;;5.22;4.72;;;22.40;76.30;;;;;;6306951;27;88407;-67
2022/12/24 02:15:43;;;;;;;4.43;4.03;;;22.50;76.40;;;;;;6304072;27;89509;-67
2022/12/24 02:18:54;;;;;;;4.78;4.25;;;22.40;76.20;;;;;;6298824;27;89072;-67
2022/12/24 02:22:02;;;;;;;5.13;4.40;;;22.50;76.20;;;;;;6300887;27;90015;-67
2022/12/24 02:25:31;;;;;;;4.50;4.10;;;22.40;76.20;;;;;;6306434;27;90114;-67
2022/12/24 02:28:54;;;;;;;4.40;4.00;;;22.40;76.10;;;;;;6305656;27;89119;-66
2022/12/24 02:32:02;;;;;;;4.50;4.10;;;22.40;76.10;;;;;;6306953;27;89105;-68
2022/12/24 02:35:09;;;;;;;4.50;4.10;;;22.40;76.10;;;;;;6305456;27;89057;-67
2022/12/24 02:38:16;;;;;;;5.05;4.55;;;22.40;76.20;;;;;;6304856;27;88960;-66
2022/12/24 02:41:22;;;;;;;5.53;4.88;;;22.40;76.20;;;;;;6299726;27;88988;-67
2022/12/24 02:44:28;;;;;;;4.32;3.92;;;22.40;76.20;;;;;;6303571;27;88715;-67
2022/12/24 02:47:32;;;;;;;4.68;4.18;;;22.40;76.20;;;;;;6296064;27;89172;-67
2022/12/24 02:50:35;;;;;;;4.55;4.13;;;22.40;76.10;;;;;;6300229;27;89061;-67
2022/12/24 02:53:38;;;;;;;4.10;3.72;;;22.40;76.20;;;;;;6301699;27;90079;-67
2022/12/24 02:56:52;;;;;;;4.47;4.07;;;22.40;76.20;;;;;;6300325;27;89115;-67
2022/12/24 03:00:02;;;;;;;4.20;3.80;;;22.40;76.20;;;;;;6301858;27;89081;-67
2022/12/24 03:03:28;;;;;;;4.28;3.83;;;22.30;76.00;;;;;;6295129;27;89226;-67
2022/12/24 03:06:38;;;;;;;4.75;3.90;;;22.40;76.10;;;;;;6302669;27;89296;-67
2022/12/24 03:09:53;;;;;;;5.05;4.30;;;22.30;76.10;;;;;;6297234;27;89296;-66
2022/12/24 03:12:59;;;;;;;4.45;4.00;;;22.30;76.00;;;;;;6302830;27;89138;-68
2022/12/24 03:16:05;;;;;;;4.43;3.70;;;22.30;76.00;;;;;;6298179;27;88402;-67
2022/12/24 03:19:09;;;;;;;4.20;3.70;;;22.30;76.00;;;;;;6303700;27;88903;-68
2022/12/24 03:22:13;;;;;;;4.13;3.60;;;22.30;76.10;;;;;;6291787;27;89104;-67
2022/12/24 03:25:16;;;;;;;3.72;3.42;;;22.30;76.00;;;;;;6290555;27;90043;-68
2022/12/24 03:28:19;;;;;;;4.70;3.78;;;22.20;75.90;;;;;;6287346;27;89002;-67
2022/12/24 03:31:22;;;;;;;4.00;3.60;;;22.30;76.00;;;;;;6302126;27;88971;-68
2022/12/24 03:34:25;;;;;;;4.10;3.50;;;22.30;76.00;;;;;;6293610;27;89192;-67
2022/12/24 03:37:27;;;;;;;4.75;3.60;;;22.20;75.80;;;;;;6292598;27;89100;-67
2022/12/24 03:40:29;;;;;;;4.25;3.75;;;22.30;75.90;;;;;;6297177;27;89245;-67
2022/12/24 03:43:32;;;;;;;4.63;3.58;;;22.30;75.90;;;;;;6293812;27;88467;-68
2022/12/24 03:46:34;;;;;;;3.92;3.55;;;22.20;75.90;;;;;;6297318;27;88415;-67
2022/12/24 03:49:37;;;;;;;4.38;3.55;;;22.20;75.90;;;;;;6301953;27;89096;-67
2022/12/24 03:52:40;;;;;;;4.45;3.78;;;22.20;75.90;;;;;;6303900;27;88024;-68
2022/12/24 03:55:42;;;;;;;4.03;3.63;;;22.20;75.90;;;;;;6296094;27;90052;-66
2022/12/24 03:58:44;;;;;;;3.95;3.55;;;22.20;75.90;;;;;;6295755;27;88978;-68
2022/12/24 04:01:46;;;;;;;3.70;3.40;;;22.20;75.90;;;;;;6304329;27;88069;-67
2022/12/24 04:04:49;;;;;;;3.75;3.35;;;22.20;76.00;;;;;;6296425;27;89277;-67
2022/12/24 04:07:51;;;;;;;3.42;3.13;;;22.20;76.10;;;;;;6300377;27;89582;-67
2022/12/24 04:10:53;;;;;;;3.40;3.00;;;22.20;76.10;;;;;;6304706;27;88887;-68
2022/12/24 04:13:56;;;;;;;3.53;3.13;;;22.20;75.70;;;;;;6298327;27;89011;-68
2022/12/24 04:16:58;;;;;;;4.63;3.22;;;22.20;75.60;;;;;;6304663;27;88451;-67
2022/12/24 04:20:01;;;;;;;4.03;2.80;;;22.20;75.70;;;;;;6296712;27;89072;-67
2022/12/24 04:23:03;;;;;;;3.20;2.90;;;22.20;75.80;;;;;;6304757;27;89132;-67
2022/12/24 04:26:07;;;;;;;3.00;2.70;;;22.10;75.70;;;;;;6303876;27;90297;-66
2022/12/24 04:29:10;;;;;;;3.70;3.15;;;22.10;75.90;;;;;;6301692;27;89103;-67
2022/12/24 04:32:12;;;;;;;3.00;2.70;;;22.10;75.60;;;;;;6290668;27;88003;-67
2022/12/24 04:35:15;;;;;;;3.80;2.80;;;22.10;75.50;;;;;;6301811;27;89034;-66
2022/12/24 04:38:17;;;;;;;3.53;2.88;;;22.10;75.40;;;;;;6304039;27;89088;-67
2022/12/24 04:41:20;;;;;;;3.20;2.88;;;22.20;75.40;;;;;;6290129;27;89101;-68
2022/12/24 04:44:23;;;;;;;3.65;2.92;;;22.20;75.40;;;;;;6293636;27;87947;-66
2022/12/24 04:47:25;;;;;;;3.80;3.00;;;22.10;75.40;;;;;;6281602;27;87540;-67
2022/12/24 04:50:28;;;;;;;3.03;2.72;;;22.20;75.50;;;;;;6285829;27;89067;-67
2022/12/24 04:53:31;;;;;;;2.60;2.40;;;22.20;75.50;;;;;;6303188;27;89089;-68
2022/12/24 04:56:33;;;;;;;3.10;2.70;;;22.20;75.50;;;;;;6303308;27;90438;-67
2022/12/24 04:59:35;;;;;;;2.65;2.45;;;22.20;75.40;;;;;;6299364;27;89183;-67
2022/12/24 05:02:37;;;;;;;2.75;2.50;;;22.20;75.30;;;;;;6297769;27;89051;-67
2022/12/24 05:05:41;;;;;;;3.47;2.65;;;22.30;75.40;;;;;;6302686;27;88974;-68
2022/12/24 05:08:43;;;;;;;3.17;2.88;;;22.30;75.20;;;;;;6303755;27;89106;-67
2022/12/24 05:11:45;;;;;;;2.83;2.63;;;22.30;75.20;;;;;;6304524;27;89089;-68
2022/12/24 05:14:47;;;;;;;2.63;2.42;;;22.30;75.20;;;;;;6287533;27;89146;-67
2022/12/24 05:17:49;;;;;;;3.00;2.70;;;22.30;75.20;;;;;;6298930;27;88712;-67
2022/12/24 05:20:53;;;;;;;2.72;2.30;;;22.30;75.20;;;;;;6287532;27;89288;-66
2022/12/24 05:27:14;;;;;;;3.25;2.58;;;22.40;75.30;;;;;;6293465;27;88485;-68
2022/12/24 05:30:16;;;;;;;2.97;2.67;;;22.40;75.40;;;;;;6305156;27;89245;-67
2022/12/24 05:33:18;;;;;;;2.97;2.70;;;22.30;75.30;;;;;;6294095;27;89081;-67
2022/12/24 05:36:23;;;;;;;2.90;2.60;;;22.40;75.30;;;;;;6305035;27;88067;-67
2022/12/24 05:39:25;;;;;;;3.05;2.78;;;22.30;75.30;;;;;;6304735;27;89080;-67
2022/12/24 05:42:27;;;;;;;4.72;3.45;;;22.40;75.40;;;;;;6293718;27;87980;-67
2022/12/24 05:45:29;;;;;;;3.72;3.28;;;22.30;75.40;;;;;;6303880;27;89159;-67
2022/12/24 05:48:31;;;;;;;3.42;3.13;;;22.40;75.50;;;;;;6297876;27;88239;-66
2022/12/24 05:51:35;;;;;;;3.55;3.25;;;22.40;75.50;;;;;;6304891;27;89141;-67
2022/12/24 05:54:37;;;;;;;4.93;3.65;;;22.30;75.50;;;;;;6303072;27;89332;-67
2022/12/24 05:57:40;;;;;;;3.80;3.40;;;22.40;75.50;;;;;;6303863;27;89648;-68
2022/12/24 06:00:42;;;;;;;5.05;3.45;;;22.40;75.60;;;;;;6305264;27;89152;-67
2022/12/24 06:03:44;;;;;;;5.18;3.80;;;22.40;75.50;;;;;;6308323;27;89099;-67
2022/12/24 06:06:48;;;;;;;4.28;3.80;;;22.40;75.40;;;;;;6308617;27;90045;-67
2022/12/24 06:09:50;;;;;;;3.90;3.50;;;22.30;76.20;;;;;;6308214;27;89087;-67
2022/12/24 06:12:52;;;;;;;5.18;3.75;;;22.30;75.30;;;;;;6307249;27;89157;-67
2022/12/24 06:15:55;;;;;;;4.40;3.70;;;22.30;75.40;;;;;;6307669;27;89068;-67
2022/12/24 06:18:57;;;;;;;4.60;4.07;;;22.30;75.40;;;;;;6308071;27;87221;-66
2022/12/24 06:22:01;;;;;;;4.78;4.28;;;22.30;75.30;;;;;;6307788;27;89076;-67
2022/12/24 06:25:03;;;;;;;5.10;4.60;;;22.40;75.40;;;;;;6300408;27;89049;-67
2022/12/24 06:28:05;;;;;;;4.40;4.00;;;22.40;75.40;;;;;;6307857;27;89798;-67
2022/12/24 06:31:11;;;;;;;4.55;4.15;;;22.40;75.40;;;;;;6307980;27;89406;-67
2022/12/24 06:34:13;;;;;;;4.72;4.22;;;22.40;75.30;;;;;;6296743;27;88027;-67
2022/12/24 06:37:17;;;;;;;5.13;4.57;;;22.30;75.20;;;;;;6308178;27;89012;-67
2022/12/24 06:40:19;;;;;;;4.63;4.03;;;22.30;75.20;;;;;;6297667;27;89096;-67
2022/12/24 06:43:21;;;;;;;5.18;4.50;;;22.40;75.10;;;;;;6307335;27;89070;-67
2022/12/24 06:46:23;;;;;;;5.85;4.57;;;22.30;75.00;;;;;;6306616;27;89166;-67
2022/12/24 06:49:25;;;;;;;4.43;4.03;;;22.30;75.00;;;;;;6296581;27;88343;-68
2022/12/24 06:52:29;;;;;;;5.20;4.45;;;22.40;74.90;;;;;;6308317;27;89077;-67
2022/12/24 06:55:31;;;;;;;5.47;4.03;;;22.40;74.90;;;;;;6297226;27;88895;-67
2022/12/24 06:58:34;;;;;;;5.32;4.60;;;22.40;74.90;;;;;;6291682;27;90039;-67
2022/12/24 07:01:36;;;;;;;4.40;4.00;;;22.40;74.90;;;;;;6306973;27;89077;-67
2022/12/24 07:04:38;;;;;;;5.00;4.38;;;22.40;74.60;;;;;;6308321;27;89220;-67
2022/12/24 07:07:44;;;;;;;5.05;4.28;;;22.40;74.70;;;;;;6303145;27;89268;-68
2022/12/24 07:10:46;;;;;;;4.43;4.03;;;22.40;74.60;;;;;;6287176;27;89131;-67
2022/12/24 07:13:48;;;;;;;6.22;4.78;;;22.40;74.60;;;;;;6306938;27;89109;-67
2022/12/24 07:16:51;;;;;;;6.05;4.82;;;22.50;74.70;;;;;;6303475;27;89105;-67
2022/12/24 07:19:53;;;;;;;5.63;4.38;;;22.50;74.70;;;;;;6296318;27;87366;-67
2022/12/24 07:22:57;;;;;;;5.00;4.50;;;22.40;74.60;;;;;;6306455;27;89114;-67
2022/12/24 07:26:01;;;;;;;5.05;4.53;;;22.50;74.70;;;;;;6303510;27;89081;-66
2022/12/24 07:29:03;;;;;;;6.50;4.68;;;22.50;74.70;;;;;;6304957;27;90056;-67
2022/12/24 07:32:06;;;;;;;5.07;4.57;;;22.50;74.70;;;;;;6306307;27;89152;-67
2022/12/24 07:35:08;;;;;;;6.40;5.00;;;22.50;74.70;;;;;;6305555;27;87671;-67
2022/12/24 07:38:12;;;;;;;6.53;5.65;;;22.50;74.70;;;;;;6295752;27;88156;-67
2022/12/24 07:41:14;;;;;;;5.32;4.82;;;22.50;74.70;;;;;;6308762;27;88946;-67
2022/12/24 07:44:17;;;;;;;9.88;5.15;;;22.50;74.70;;;;;;6302949;27;89243;-66
2022/12/24 07:47:19;;;;;;;6.57;5.13;;;22.50;74.50;;;;;;6303087;27;87991;-67
2022/12/24 07:50:21;;;;;;;6.72;4.97;;;22.50;74.60;;;;;;6305025;27;88425;-67
2022/12/24 07:53:26;;;;;;;6.13;5.00;;;22.50;74.70;;;;;;6305061;27;89148;-67
2022/12/24 07:56:28;;;;;;;5.60;4.90;;;22.50;74.70;;;;;;6302991;27;89228;-67
2022/12/24 07:59:30;;;;;;;7.00;5.03;;;22.50;74.80;;;;;;6303273;27;90039;-67
2022/12/24 08:02:32;;;;;;;5.78;5.18;;;22.50;74.70;;;;;;6298278;27;87939;-67
2022/12/24 08:05:35;;;;;;;5.53;4.93;;;22.50;74.90;;;;;;6301499;27;89036;-67
2022/12/24 08:08:38;;;;;;;7.03;4.78;;;22.60;74.90;;;;;;6301849;27;89043;-68
2022/12/24 08:11:40;;;;;;;7.10;5.05;;;22.60;74.90;;;;;;6301178;27;89114;-68
2022/12/24 08:14:42;;;;;;;7.20;4.93;;;22.50;74.80;;;;;;6302774;27;89316;-67
2022/12/24 08:17:45;;;;;;;7.30;5.40;;;22.60;74.90;;;;;;6299467;27;89088;-67
2022/12/24 08:20:47;;;;;;;5.88;4.75;;;22.60;74.90;;;;;;6304477;27;88221;-68
2022/12/24 08:23:50;;;;;;;5.63;4.60;;;22.60;74.90;;;;;;6303554;27;89042;-68
2022/12/24 08:26:53;;;;;;;5.53;4.63;;;22.60;74.90;;;;;;6301633;27;89180;-68
2022/12/24 08:29:55;;;;;;;5.35;4.85;;;22.60;74.90;;;;;;6297333;27;90420;-68
2022/12/24 08:32:57;;;;;;;7.13;4.88;;;22.60;75.00;;;;;;6300246;27;89092;-66
2022/12/24 08:36:01;;;;;;;5.30;4.45;;;22.60;75.00;;;;;;6306105;27;88892;-67
2022/12/24 08:39:07;;;;;;;5.10;4.60;;;22.60;75.00;;;;;;6301350;27;88990;-68
2022/12/24 08:42:09;;;;;;;5.13;4.30;;;22.60;75.50;;;;;;6300616;27;89191;-68
2022/12/24 08:45:12;;;;;;;5.68;3.97;;;22.60;75.40;;;;;;6299506;27;89102;-69
2022/12/24 08:48:14;;;;;;;5.28;4.60;;;22.60;75.10;;;;;;6304191;27;89185;-69
2022/12/24 08:51:17;;;;;;;5.63;4.35;;;22.60;75.40;;;;;;6294860;27;88290;-69
2022/12/24 08:54:22;;;;;;;4.97;4.03;;;22.70;75.90;;;;;;6293376;27;89121;-70
2022/12/24 08:57:24;;;;;;;6.05;4.28;;;22.70;76.00;;;;;;6281842;27;89121;-70
2022/12/24 09:00:27;;;;;;;4.82;4.30;;;22.70;76.00;;;;;;6304275;27;90037;-69
2022/12/24 09:03:29;;;;;;;6.22;4.22;;;22.70;76.10;;;;;;6291779;27;89418;-68
2022/12/24 09:06:32;;;;;;;5.97;4.28;;;22.70;76.10;;;;;;6296859;27;89476;-68
2022/12/24 09:09:35;;;;;;;4.78;3.70;;;22.70;76.00;;;;;;6304041;27;87941;-67
2022/12/24 09:12:38;;;;;;;5.13;4.35;;;22.70;76.10;;;;;;6302141;27;89032;-66
2022/12/24 09:15:40;;;;;;;4.35;3.80;;;22.80;76.10;;;;;;6302359;27;89081;-67
2022/12/24 09:18:42;;;;;;;5.13;4.22;;;22.80;76.00;;;;;;6304687;27;89161;-67
2022/12/24 09:21:44;;;;;;;4.30;3.90;;;22.80;75.90;;;;;;6306727;27;88306;-67
2022/12/24 09:24:47;;;;;;;4.82;3.67;;;22.80;75.90;;;;;;6296148;27;89121;-67
2022/12/24 09:27:49;;;;;;;4.75;4.00;;;22.80;75.70;;;;;;6304454;27;89321;-66
2022/12/24 09:30:59;;;;;;;4.55;3.72;;;22.90;75.80;;;;;;6301944;27;89994;-66
2022/12/24 09:34:01;;;;;;;3.65;3.30;;;22.80;75.80;;;;;;6293185;27;89115;-67
2022/12/24 09:37:04;;;;;;;3.95;3.55;;;22.80;75.90;;;;;;6303616;27;87980;-67
2022/12/24 09:40:16;;;;;;;5.68;4.00;;;22.80;77.10;;;;;;6301309;27;88001;-67
2022/12/24 09:43:19;;;;;;;4.65;3.63;;;22.90;76.40;;;;;;6304048;27;89168;-66
2022/12/24 09:46:26;;;;;;;4.07;3.40;;;22.90;76.50;;;;;;6307493;27;87979;-67
2022/12/24 09:49:38;;;;;;;4.80;3.83;;;22.80;76.60;;;;;;6304183;27;89393;-66
2022/12/24 09:52:43;;;;;;;3.88;3.30;;;22.80;76.90;;;;;;6304747;27;88472;-67
2022/12/24 09:55:50;;;;;;;3.70;3.00;;;22.80;77.10;;;;;;6304022;27;89107;-67
2022/12/24 09:58:57;;;;;;;3.90;3.05;;;22.80;77.20;;;;;;6309076;27;89182;-67
2022/12/24 10:02:01;;;;;;;3.85;2.83;;;22.80;77.40;;;;;;6307793;27;90226;-67
2022/12/24 10:05:03;;;;;;;4.72;3.13;;;22.80;77.70;;;;;;6308852;27;89020;-66
2022/12/24 10:08:18;;;;;;;4.40;3.47;;;22.90;77.90;;;;;;6307765;27;89105;-66
2022/12/24 10:11:26;;;;;;;5.53;3.50;;;22.90;78.30;;;;;;6304940;27;89071;-66
2022/12/24 10:14:42;;;;;;;7.78;3.88;;;22.80;79.10;;;;;;6292444;27;89206;-65
2022/12/24 10:17:56;;;;;;;6.68;3.30;;;22.80;79.30;;;;;;6294425;27;89043;-65
2022/12/24 10:21:05;;;;;;;5.38;3.40;;;22.80;79.40;;;;;;6307301;27;88736;-66
2022/12/24 10:24:14;;;;;;;3.85;3.10;;;22.90;80.00;;;;;;6308831;27;88421;-67
2022/12/24 10:27:21;;;;;;;4.15;2.95;;;22.90;80.30;;;;;;6302092;27;89049;-67
2022/12/24 10:30:24;;;;;;;7.32;3.42;;;22.80;80.80;;;;;;6308695;27;89150;-67
2022/12/24 10:33:32;;;;;;;6.43;3.00;;;22.90;81.10;;;;;;6299579;27;90572;-67
2022/12/24 10:36:34;;;;;;;4.28;3.35;;;22.80;81.20;;;;;;6301366;27;88050;-67
2022/12/24 10:39:36;;;;;;;5.75;3.00;;;22.90;81.50;;;;;;6306198;27;88837;-67
2022/12/24 10:42:42;;;;;;;7.53;3.58;;;22.90;81.50;;;;;;6303722;27;89431;-67
2022/12/24 10:45:48;;;;;;;9.05;3.40;;;22.90;81.50;;;;;;6307864;27;89112;-67
2022/12/24 10:48:57;;;;;;;4.90;3.25;;;22.90;81.50;;;;;;6308569;27;89054;-66
2022/12/24 10:52:05;;;;;;;6.60;2.92;;;22.90;81.40;;;;;;6294233;27;89027;-66
2022/12/24 10:55:11;;;;;;;4.30;2.70;;;22.90;81.30;;;;;;6290221;27;88571;-66
2022/12/24 10:58:18;;;;;;;5.68;3.13;;;22.90;81.20;;;;;;6306311;27;89399;-66
2022/12/24 11:01:20;;;;;;;5.05;3.10;;;22.90;81.10;;;;;;6306920;27;89073;-66
2022/12/24 11:04:25;;;;;;;9.25;3.25;;;22.90;81.10;;;;;;6306793;27;89983;-66
2022/12/24 11:07:28;;;;;;;5.55;3.55;;;22.90;81.10;;;;;;6306430;27;89275;-66
2022/12/24 11:10:31;;;;;;;3.83;2.80;;;22.90;81.00;;;;;;6306902;27;87970;-66
2022/12/24 11:13:38;;;;;;;5.93;2.90;;;22.90;81.00;;;;;;6308092;27;89136;-66
2022/12/24 11:16:40;;;;;;;5.45;2.97;;;22.90;81.00;;;;;;6307555;27;88988;-66
2022/12/24 11:19:48;;;;;;;5.15;2.85;;;22.90;81.00;;;;;;6305498;27;87867;-66
2022/12/24 11:22:51;;;;;;;4.40;3.00;;;22.90;81.00;;;;;;6298892;27;89253;-66
2022/12/24 11:25:53;;;;;;;4.90;2.92;;;22.90;80.90;;;;;;6304047;27;87865;-66
2022/12/24 11:29:16;;;;;;;4.93;2.92;;;22.90;80.80;;;;;;6306948;27;89355;-66
2022/12/24 11:32:21;;;;;;;4.72;3.05;;;22.90;80.80;;;;;;6305707;27;89037;-66
2022/12/24 11:35:25;;;;;;;3.75;2.95;;;22.90;80.70;;;;;;6305614;27;89942;-66
2022/12/24 11:38:29;;;;;;;4.28;2.83;;;23.00;81.60;;;;;;6306390;27;88710;-66
2022/12/24 11:41:37;;;;;;;4.97;3.20;;;22.90;80.60;;;;;;6303153;27;89100;-65
2022/12/24 11:44:48;;;;;;;5.20;2.83;;;22.90;80.60;;;;;;6306633;27;89099;-66
2022/12/24 11:47:52;;;;;;;3.90;2.97;;;23.00;80.60;;;;;;6290366;27;89212;-66
2022/12/24 11:50:59;;;;;;;3.70;2.85;;;22.90;80.50;;;;;;6294827;27;89738;-66
2022/12/24 11:54:09;;;;;;;3.80;2.63;;;22.90;80.40;;;;;;6295779;27;89293;-66
2022/12/24 11:57:15;;;;;;;4.80;2.70;;;23.00;80.40;;;;;;6303856;27;87357;-66
2022/12/24 12:00:18;;;;;;;3.50;2.65;;;22.90;80.30;;;;;;6294164;27;89089;-66
2022/12/24 12:03:31;;;;;;;4.07;2.78;;;22.90;80.30;;;;;;6304339;27;89191;-66
2022/12/24 12:06:37;;;;;;;5.00;2.60;;;22.90;80.20;;;;;;6305164;27;89974;-66
2022/12/24 12:09:43;;;;;;;3.20;2.10;;;23.00;80.20;;;;;;6304271;27;89340;-66
2022/12/24 12:12:51;;;;;;;3.58;2.50;;;23.00;80.10;;;;;;6305417;27;89085;-66
2022/12/24 12:16:12;;;;;;;2.85;2.50;;;23.00;80.10;;;;;;6305393;27;89121;-66
2022/12/24 12:19:15;;;;;;;3.38;2.80;;;23.00;81.00;;;;;;6304040;27;89074;-66
2022/12/24 12:22:23;;;;;;;4.00;2.58;;;23.00;80.00;;;;;;6301339;27;88828;-66
2022/12/24 12:25:42;;;;;;;3.05;2.45;;;23.00;79.80;;;;;;6305580;27;89098;-66
2022/12/24 12:28:48;;;;;;;4.43;2.60;;;23.00;79.80;;;;;;6293252;27;88391;-66
2022/12/24 12:31:57;;;;;;;3.95;2.60;;;23.00;79.80;;;;;;6284908;27;89475;-66
2022/12/24 12:35:05;;;;;;;4.13;2.55;;;23.00;79.80;;;;;;6296624;27;89132;-66
2022/12/24 12:38:11;;;;;;;3.67;2.47;;;23.00;79.70;;;;;;6306150;27;90083;-67
2022/12/24 12:41:40;;;;;;;3.38;2.28;;;23.00;79.60;;;;;;6293586;27;88258;-66
2022/12/24 12:44:54;;;;;;;4.28;2.70;;;23.00;79.50;;;;;;6290731;27;89672;-67
2022/12/24 12:48:11;;;;;;;2.88;2.42;;;23.00;79.60;;;;;;6304653;27;89012;-66
2022/12/24 12:51:19;;;;;;;3.42;2.40;;;23.00;79.50;;;;;;6294919;27;89041;-66
2022/12/24 12:54:37;;;;;;;2.92;2.28;;;23.00;79.40;;;;;;6304767;27;88032;-66
2022/12/24 12:57:39;;;;;;;4.00;2.38;;;23.00;79.30;;;;;;6293769;27;89390;-66
2022/12/24 13:00:45;;;;;;;4.20;2.53;;;23.00;79.30;;;;;;6305424;27;88398;-66
2022/12/24 13:04:37;;;;;;;3.28;2.40;;;23.00;79.20;;;;;;6305391;27;89066;-66
2022/12/24 13:08:10;;;;;;;2.80;2.50;;;23.00;79.10;;;;;;6204573;28;89116;-66
2022/12/24 13:11:27;;;;;;;2.85;2.00;;;23.00;80.00;;;;;;6216235;27;90500;-66
2022/12/24 13:14:44;;;;;;;2.00;1.85;;;22.90;78.90;;;;;;6309420;27;89036;-65
2022/12/24 13:18:19;;;;;;;2.30;2.10;;;23.00;78.90;;;;;;6286996;27;89396;-66
2022/12/24 13:21:24;;;;;;;2.50;2.30;;;23.00;78.80;;;;;;6308699;27;90824;-66
2022/12/24 13:24:29;;;;;;;3.30;2.20;;;23.00;78.80;;;;;;6295870;27;89058;-66
2022/12/24 13:27:34;;;;;;;2.53;2.13;;;23.00;78.80;;;;;;6307551;27;89764;-66
2022/12/24 13:30:38;;;;;;;3.05;2.20;;;23.00;78.80;;;;;;6293415;27;89061;-66
2022/12/24 13:33:48;;;;;;;3.20;2.53;;;23.00;78.60;;;;;;6298438;27;88154;-65
2022/12/24 13:37:20;;;;;;;2.60;2.10;;;23.00;78.60;;;;;;6300295;27;89283;-66
2022/12/24 13:40:25;;;;;;;3.40;2.67;;;23.00;78.50;;;;;;6300227;27;89176;-66
2022/12/24 13:44:02;;;;;;;2.78;2.15;;;23.00;78.40;;;;;;6295044;27;90084;-66
2022/12/24 13:47:20;;;;;;;2.65;2.10;;;23.00;78.50;;;;;;6305999;27;89568;-65
2022/12/24 13:50:26;;;;;;;2.25;1.95;;;23.00;78.40;;;;;;6302923;27;89105;-66
2022/12/24 13:53:32;;;;;;;2.60;2.00;;;23.00;78.50;;;;;;6301298;27;90921;-66
2022/12/24 13:56:37;;;;;;;2.45;1.98;;;23.00;78.40;;;;;;6305729;27;89020;-65
2022/12/24 13:59:40;;;;;;;2.53;2.00;;;23.00;78.40;;;;;;6299580;27;89075;-66
2022/12/24 14:02:50;;;;;;;2.88;2.30;;;23.00;78.40;;;;;;6300714;27;87987;-66
2022/12/24 14:05:56;;;;;;;4.50;2.47;;;23.00;78.30;;;;;;6307861;27;88393;-66
2022/12/24 14:09:07;;;;;;;3.30;2.25;;;23.00;78.10;;;;;;6305558;27;89093;-66
2022/12/24 14:12:33;;;;;;;4.60;2.10;;;23.00;78.10;;;;;;6291128;27;87992;-66
2022/12/24 14:16:07;;;;;;;2.78;1.90;;;23.00;78.10;;;;;;6296197;27;90148;-66
2022/12/24 14:19:14;;;;;;;3.38;2.10;;;22.90;78.00;;;;;;6308037;27;89187;-66
2022/12/24 14:22:26;;;;;;;4.50;2.50;;;23.00;78.10;;;;;;6306083;27;89417;-66
2022/12/24 14:25:29;;;;;;;4.88;2.60;;;23.00;78.00;;;;;;6301510;27;89418;-66
2022/12/24 14:28:40;;;;;;;3.42;2.33;;;23.00;77.60;;;;;;6307929;27;89045;-65
2022/12/24 14:31:51;;;;;;;2.58;2.08;;;23.00;77.70;;;;;;6308637;27;89109;-66
2022/12/24 14:35:06;;;;;;;3.50;2.30;;;23.00;77.80;;;;;;6283251;27;89086;-66
2022/12/24 14:38:16;;;;;;;2.63;2.17;;;23.00;77.90;;;;;;6297592;27;88354;-66
2022/12/24 14:41:28;;;;;;;2.22;2.03;;;22.90;77.80;;;;;;6295242;27;88936;-66
2022/12/24 14:44:41;;;;;;;3.55;2.42;;;23.00;77.90;;;;;;6308600;27;88980;-66
2022/12/24 14:47:51;;;;;;;3.10;2.40;;;22.90;77.80;;;;;;6307825;27;90004;-66
2022/12/24 14:51:06;;;;;;;2.80;2.15;;;23.00;77.90;;;;;;6297072;27;89206;-66
2022/12/24 14:54:29;;;;;;;3.00;2.17;;;23.00;77.90;;;;;;6307279;27;90555;-66
2022/12/24 14:57:31;;;;;;;2.83;1.98;;;23.00;77.90;;;;;;6307851;27;89106;-66
2022/12/24 15:00:34;;;;;;;2.70;2.30;;;23.00;77.90;;;;;;6306303;27;88746;-66
2022/12/24 15:03:36;;;;;;;3.20;2.13;;;22.90;77.80;;;;;;6296238;27;89183;-66
2022/12/24 15:06:41;;;;;;;4.03;2.45;;;22.90;77.80;;;;;;6307138;27;89635;-66
2022/12/24 15:09:43;;;;;;;3.10;2.35;;;22.90;77.80;;;;;;6307118;27;88324;-66
2022/12/24 15:12:46;;;;;;;3.03;2.30;;;23.00;77.90;;;;;;6294683;27;89225;-66
2022/12/24 15:15:51;;;;;;;3.10;2.35;;;22.90;77.80;;;;;;6301838;27;89047;-66
2022/12/24 15:18:58;;;;;;;2.58;2.10;;;23.00;77.80;;;;;;6285423;27;90532;-67
2022/12/24 15:22:02;;;;;;;2.38;1.90;;;23.00;77.80;;;;;;6305088;27;89258;-66
2022/12/24 15:25:17;;;;;;;2.85;2.10;;;22.90;77.80;;;;;;6294904;27;89047;-66
2022/12/24 15:28:22;;;;;;;2.78;2.22;;;23.00;77.70;;;;;;6295341;27;89334;-66
2022/12/24 15:31:28;;;;;;;2.15;1.90;;;23.00;77.80;;;;;;6307364;27;88272;-66
2022/12/24 15:34:36;;;;;;;3.00;2.20;;;22.90;77.70;;;;;;6303020;27;89084;-66
2022/12/24 15:37:42;;;;;;;2.20;2.00;;;23.00;77.70;;;;;;6293115;27;89227;-66
2022/12/24 15:40:48;;;;;;;2.20;1.95;;;23.00;77.70;;;;;;6305291;27;88678;-66
2022/12/24 15:43:52;;;;;;;2.35;2.10;;;23.00;77.70;;;;;;6294323;27;89087;-65
2022/12/24 15:47:00;;;;;;;2.42;2.15;;;22.90;77.60;;;;;;6288778;27;89050;-66
2022/12/24 15:50:02;;;;;;;2.53;2.05;;;22.90;77.60;;;;;;6300300;27;88877;-66
2022/12/24 15:53:08;;;;;;;2.58;2.20;;;22.90;77.60;;;;;;6304130;27;89127;-66
2022/12/24 15:56:12;;;;;;;2.83;2.10;;;23.00;77.70;;;;;;6287188;27;89048;-67
2022/12/24 15:59:27;;;;;;;4.30;2.47;;;23.00;77.60;;;;;;6302477;27;89005;-66
2022/12/24 16:02:40;;;;;;;2.40;2.13;;;22.90;77.60;;;;;;6297551;27;88244;-66
2022/12/24 16:05:42;;;;;;;2.88;2.30;;;23.00;77.60;;;;;;6303154;27;89024;-66
2022/12/24 16:08:45;;;;;;;2.35;2.15;;;23.00;77.60;;;;;;6293517;27;89378;-66
2022/12/24 16:11:47;;;;;;;2.20;2.00;;;23.00;77.60;;;;;;6307955;27;88330;-66
2022/12/24 16:14:52;;;;;;;2.45;2.15;;;23.00;77.60;;;;;;6294156;27;89308;-65
2022/12/24 16:17:56;;;;;;;2.50;2.20;;;22.90;77.50;;;;;;6306296;27;89037;-65